Time;durP1;ratioP1;P1;durP2;ratioP2;P2;SDS_P1;SDS_P2;PMS_P1;PMS_P2;Temp;Humidity;BMP_temperature;BMP_pressure;BME280_temperature;BME280_humidity;BME280_pressure;Samples;Min_cycle;Max_cycle;Signal;HPM_P1;HPM_P2
2022/01/29 00:01:36;;;;;;;14.65;6.05;;;;;;;-0.79;69.36;101293.66;2085036;83;21054;-73
2022/01/29 00:04:40;;;;;;;11.03;5.03;;;;;;;-0.77;69.44;101287.06;2083065;83;21018;-73
2022/01/29 00:07:42;;;;;;;11.97;5.28;;;;;;;-0.76;69.41;101283.53;2076676;83;21029;-72
2022/01/29 00:10:46;;;;;;;11.90;4.65;;;;;;;-0.77;69.30;101288.37;2082119;83;21406;-73
2022/01/29 00:13:47;;;;;;;11.85;5.40;;;;;;;-0.78;69.34;101283.62;2082194;83;21559;-73
2022/01/29 00:16:48;;;;;;;15.18;5.25;;;;;;;-0.80;69.31;101278.08;2081063;83;21066;-72
2022/01/29 00:19:50;;;;;;;16.17;5.75;;;;;;;-0.83;69.36;101279.52;2080916;83;21531;-73
2022/01/29 00:22:52;;;;;;;10.38;4.85;;;;;;;-0.82;69.33;101272.08;2081997;83;21054;-73
2022/01/29 00:25:54;;;;;;;12.75;4.87;;;;;;;-0.83;69.34;101267.79;2087912;83;21064;-73
2022/01/29 00:28:58;;;;;;;13.08;5.17;;;;;;;-0.87;69.19;101266.20;2086322;83;21047;-73
2022/01/29 00:31:59;;;;;;;15.05;5.00;;;;;;;-0.89;69.37;101262.38;2088439;83;21065;-74
2022/01/29 00:35:01;;;;;;;13.55;5.28;;;;;;;-0.88;69.35;101256.70;2076758;83;21050;-73
2022/01/29 00:38:04;;;;;;;11.30;4.60;;;;;;;-0.88;69.48;101258.84;2079002;83;21037;-73
2022/01/29 00:41:08;;;;;;;11.03;4.45;;;;;;;-0.89;69.41;101251.95;2087451;83;20974;-73
2022/01/29 00:44:12;;;;;;;11.95;5.17;;;;;;;-0.90;69.54;101252.88;2081213;83;21014;-72
2022/01/29 00:47:14;;;;;;;10.95;4.95;;;;;;;-0.91;69.48;101258.52;2082022;83;21025;-72
2022/01/29 00:50:16;;;;;;;10.70;4.90;;;;;;;-0.93;69.60;101253.86;2086619;83;21485;-71
2022/01/29 00:53:17;;;;;;;11.70;4.60;;;;;;;-0.94;69.58;101253.91;2086942;83;21061;-72
2022/01/29 00:56:20;;;;;;;11.77;4.83;;;;;;;-0.94;69.62;101256.52;2078696;83;21070;-72
2022/01/29 00:59:22;;;;;;;15.13;5.92;;;;;;;-0.94;69.60;101258.66;2071587;84;21062;-72
2022/01/29 01:02:24;;;;;;;13.28;4.85;;;;;;;-0.94;69.58;101261.27;2070662;84;21001;-72
2022/01/29 01:05:25;;;;;;;16.05;4.95;;;;;;;-0.93;69.74;101258.19;2066825;84;21517;-73
2022/01/29 01:08:27;;;;;;;13.48;4.78;;;;;;;-0.94;69.98;101252.61;2070991;83;20985;-72
2022/01/29 01:11:28;;;;;;;11.20;4.40;;;;;;;-0.93;70.17;101248.64;2088546;83;22360;-72
2022/01/29 01:14:30;;;;;;;14.85;5.45;;;;;;;-0.92;70.22;101242.51;2046332;84;21004;-76
2022/01/29 01:17:31;;;;;;;17.90;5.58;;;;;;;-0.89;70.42;101247.20;2043111;84;21548;-72
2022/01/29 01:20:33;;;;;;;16.00;6.05;;;;;;;-0.91;70.51;101244.19;2050390;85;20944;-72
2022/01/29 01:23:34;;;;;;;18.55;5.92;;;;;;;-0.91;70.70;101242.89;2057028;84;20982;-72
2022/01/29 01:26:35;;;;;;;19.87;6.45;;;;;;;-0.91;70.90;101236.38;2061154;84;20982;-72
2022/01/29 01:29:37;;;;;;;17.35;6.25;;;;;;;-0.87;71.14;101227.12;2057874;84;20991;-72
2022/01/29 01:32:38;;;;;;;15.60;5.40;;;;;;;-0.84;71.27;101217.89;2059725;84;21053;-72
2022/01/29 01:35:45;;;;;;;14.38;4.92;;;;;;;-0.88;71.23;101216.31;2058409;84;21108;-73
2022/01/29 01:38:49;;;;;;;16.40;5.60;;;;;;;-0.91;71.29;101219.90;2052086;84;21133;-72
2022/01/29 01:42:03;;;;;;;17.45;5.55;;;;;;;-0.89;71.49;101215.94;2051999;84;21032;-72
2022/01/29 01:44:57;;;;;;;16.40;5.55;;;;;;;-0.86;71.53;101218.41;2058754;85;21118;-73
2022/01/29 01:48:01;;;;;;;17.10;5.70;;;;;;;-0.89;71.68;101215.47;2062365;85;21580;-72
2022/01/29 01:51:02;;;;;;;18.37;6.20;;;;;;;-0.95;71.76;101216.59;2060238;85;21064;-74
2022/01/29 01:54:04;;;;;;;13.28;4.80;;;;;;;-0.99;71.90;101212.41;2058256;85;21007;-73
2022/01/29 01:57:06;;;;;;;21.95;6.37;;;;;;;-1.02;72.06;101199.97;2058445;84;21037;-72
2022/01/29 02:00:10;;;;;;;17.12;5.47;;;;;;;-1.05;72.25;101200.95;2056328;85;20968;-72
2022/01/29 02:03:14;;;;;;;13.68;5.17;;;;;;;-1.10;72.34;101191.17;2054658;85;20943;-73
2022/01/29 02:06:15;;;;;;;20.85;6.03;;;;;;;-1.12;72.58;101196.09;2051301;85;20948;-72
2022/01/29 02:09:19;;;;;;;20.02;5.72;;;;;;;-1.10;72.84;101200.30;2057062;84;21037;-72
2022/01/29 02:12:23;;;;;;;20.68;5.60;;;;;;;-1.13;72.98;101197.83;2047052;85;21070;-73
2022/01/29 02:15:25;;;;;;;19.05;5.85;;;;;;;-1.12;73.39;101195.63;2034736;85;21067;-73
2022/01/29 02:18:26;;;;;;;19.92;5.78;;;;;;;-1.11;73.58;101192.10;2056982;84;21100;-71
2022/01/29 02:21:28;;;;;;;15.43;6.30;;;;;;;-1.10;73.71;101178.16;2060976;84;20990;-73
2022/01/29 02:24:30;;;;;;;20.20;6.37;;;;;;;-1.09;73.89;101182.94;2045868;84;21058;-72
2022/01/29 02:27:31;;;;;;;11.45;4.42;;;;;;;-1.10;74.04;101176.02;2055211;85;21078;-73
2022/01/29 02:30:34;;;;;;;22.37;5.95;;;;;;;-1.11;74.27;101176.47;2064511;84;20952;-72
2022/01/29 02:33:39;;;;;;;22.32;5.85;;;;;;;-1.15;74.42;101177.07;2050845;84;21427;-76
2022/01/29 02:36:41;;;;;;;21.93;5.62;;;;;;;-1.14;74.59;101169.63;2031108;85;21038;-71
2022/01/29 02:39:42;;;;;;;19.15;6.15;;;;;;;-1.11;74.93;101172.56;2041254;85;21030;-72
2022/01/29 02:42:44;;;;;;;20.50;5.80;;;;;;;-1.10;75.06;101160.38;2044275;85;21070;-72
2022/01/29 02:45:47;;;;;;;23.52;5.50;;;;;;;-1.12;75.00;101144.84;2053138;85;21799;-71
2022/01/29 02:48:52;;;;;;;20.00;5.62;;;;;;;-1.10;75.30;101153.41;2049455;85;21082;-73
2022/01/29 02:51:57;;;;;;;19.27;5.72;;;;;;;-1.06;75.50;101146.33;2055332;84;21491;-72
2022/01/29 02:54:59;;;;;;;17.82;6.25;;;;;;;-1.05;75.68;101141.50;2063785;84;20985;-72
2022/01/29 02:58:01;;;;;;;22.77;6.25;;;;;;;-1.05;76.05;101137.12;2050296;85;21089;-72
2022/01/29 03:01:05;;;;;;;17.05;5.87;;;;;;;-1.07;75.95;101143.31;2037102;86;21034;-72
2022/01/29 03:04:10;;;;;;;23.00;5.80;;;;;;;-1.08;76.68;101141.17;2049189;84;21133;-72
2022/01/29 03:07:10;;;;;;;23.05;6.22;;;;;;;-1.06;76.68;101130.23;2046437;85;22154;-72
2022/01/29 03:10:12;;;;;;;24.27;5.97;;;;;;;-1.02;76.62;101138.75;2053457;85;20956;-72
2022/01/29 03:13:15;;;;;;;27.82;6.78;;;;;;;-1.03;76.85;101135.31;2052540;84;20975;-73
2022/01/29 03:16:17;;;;;;;30.88;6.33;;;;;;;-1.02;77.01;101123.96;2061031;84;21038;-74
2022/01/29 03:19:21;;;;;;;35.10;5.90;;;;;;;-1.01;77.09;101121.77;2057204;84;21065;-73
2022/01/29 03:22:22;;;;;;;22.13;5.78;;;;;;;-1.01;77.05;101117.86;2083689;83;21034;-73
2022/01/29 03:25:24;;;;;;;22.70;5.05;;;;;;;-0.99;77.06;101102.14;2086940;83;21488;-73
2022/01/29 03:28:25;;;;;;;31.33;6.83;;;;;;;-0.96;77.37;101100.70;2090813;83;21015;-71
2022/01/29 03:31:27;;;;;;;29.50;6.85;;;;;;;-0.92;77.40;101103.11;2058754;83;21029;-71
2022/01/29 03:34:28;;;;;;;20.97;5.80;;;;;;;-0.92;77.25;101092.69;2083250;82;21029;-72
2022/01/29 03:37:30;;;;;;;21.10;5.22;;;;;;;-0.92;77.31;101097.89;2085499;82;21102;-72
2022/01/29 03:40:33;;;;;;;25.95;5.47;;;;;;;-0.95;77.21;101090.22;2058384;83;21453;-72
2022/01/29 03:43:42;;;;;;;20.62;5.25;;;;;;;-0.94;77.28;101087.98;2081127;83;21003;-71
2022/01/29 03:46:38;;;;;;;30.80;7.62;;;;;;;-0.94;77.26;101084.08;2064153;83;21054;-71
2022/01/29 03:49:39;;;;;;;20.37;5.30;;;;;;;-0.92;77.26;101083.56;2074234;83;20988;-75
2022/01/29 03:52:40;;;;;;;25.27;5.67;;;;;;;-0.91;77.38;101079.19;2094227;82;22338;-71
2022/01/29 03:55:42;;;;;;;14.38;4.50;;;;;;;-0.92;77.38;101067.09;2082807;83;20996;-71
2022/01/29 03:58:44;;;;;;;27.90;5.95;;;;;;;-0.95;77.38;101068.54;2076620;83;21077;-74
2022/01/29 04:01:46;;;;;;;27.62;6.53;;;;;;;-1.01;77.46;101073.57;2086608;83;21001;-72
2022/01/29 04:04:47;;;;;;;37.10;6.20;;;;;;;-1.07;77.46;101075.16;2081444;83;21131;-75
2022/01/29 04:07:48;;;;;;;22.85;5.83;;;;;;;-1.14;77.65;101070.66;2082995;83;20994;-72
2022/01/29 04:10:50;;;;;;;33.02;5.50;;;;;;;-1.17;77.71;101067.35;2086355;83;21029;-71
2022/01/29 04:13:52;;;;;;;26.73;5.85;;;;;;;-1.20;77.84;101060.52;2101069;83;21014;-71
2022/01/29 04:16:53;;;;;;;22.37;5.50;;;;;;;-1.22;77.92;101051.92;2094394;83;21051;-73
2022/01/29 04:19:55;;;;;;;31.27;6.03;;;;;;;-1.23;77.93;101045.49;2073418;83;21090;-75
2022/01/29 04:22:56;;;;;;;17.52;5.37;;;;;;;-1.21;78.12;101036.70;2062406;83;21082;-71
2022/01/29 04:25:59;;;;;;;23.83;5.33;;;;;;;-1.21;78.21;101030.19;2055395;84;21107;-72
2022/01/29 04:29:07;;;;;;;22.58;5.17;;;;;;;-1.23;78.29;101028.11;2068077;83;21613;-71
2022/01/29 04:32:18;;;;;;;18.65;5.30;;;;;;;-1.23;78.49;101029.87;2077781;84;21007;-72
2022/01/29 04:35:15;;;;;;;16.65;4.35;;;;;;;-1.23;78.49;101036.38;2074827;83;21018;-71
2022/01/29 04:38:19;;;;;;;21.68;5.00;;;;;;;-1.24;78.57;101032.94;2048329;83;21004;-71
2022/01/29 04:41:21;;;;;;;24.23;4.85;;;;;;;-1.23;78.78;101022.06;2072473;83;21091;-72
2022/01/29 04:44:23;;;;;;;19.95;5.35;;;;;;;-1.22;78.81;101022.44;2072189;83;21023;-71
2022/01/29 04:47:24;;;;;;;22.07;6.20;;;;;;;-1.23;78.83;101031.17;2070298;84;21037;-75
2022/01/29 04:50:26;;;;;;;22.93;6.03;;;;;;;-1.19;78.91;101017.08;2068243;83;21026;-71
2022/01/29 04:53:27;;;;;;;21.55;5.55;;;;;;;-1.16;79.03;101028.66;2070449;84;21069;-71
2022/01/29 04:56:29;;;;;;;24.55;5.70;;;;;;;-1.09;79.12;101018.83;2074981;83;21013;-74
2022/01/29 04:59:30;;;;;;;21.15;5.80;;;;;;;-1.01;79.18;101028.44;2066190;83;21869;-72
2022/01/29 05:02:31;;;;;;;24.90;5.87;;;;;;;-0.95;79.25;101017.73;2075605;83;21034;-73
2022/01/29 05:05:33;;;;;;;26.07;5.72;;;;;;;-0.85;79.31;101010.31;2068997;84;20959;-71
2022/01/29 05:08:34;;;;;;;20.17;5.50;;;;;;;-0.75;79.33;101005.07;2057730;83;21139;-72
2022/01/29 05:11:35;;;;;;;23.55;6.20;;;;;;;-0.65;79.31;101013.28;2073792;84;21076;-71
2022/01/29 05:14:51;;;;;;;22.87;5.42;;;;;;;-0.59;79.24;101005.16;2073150;83;21003;-73
2022/01/29 05:27:37;;;;;;;21.87;5.08;;;;;;;-0.34;79.14;100983.52;2015620;86;21028;-70
2022/01/29 05:30:38;;;;;;;27.67;6.08;;;;;;;-0.31;79.11;100987.72;2080541;83;21030;-70
2022/01/29 05:33:40;;;;;;;22.22;6.50;;;;;;;-0.27;79.18;100972.31;2080810;83;21014;-72
2022/01/29 05:36:41;;;;;;;34.53;7.00;;;;;;;-0.29;79.10;100975.45;2082823;83;21061;-70
2022/01/29 05:39:42;;;;;;;27.13;6.12;;;;;;;-0.34;79.08;100960.48;2079602;83;21097;-74
2022/01/29 05:42:44;;;;;;;21.60;6.08;;;;;;;-0.36;79.18;100964.49;2082227;83;21053;-70
2022/01/29 05:45:45;;;;;;;21.12;4.95;;;;;;;-0.36;79.15;100967.56;2089155;83;21047;-72
2022/01/29 05:48:46;;;;;;;24.30;5.50;;;;;;;-0.35;79.26;100932.73;2098465;83;21628;-71
2022/01/29 05:51:48;;;;;;;23.30;5.50;;;;;;;-0.29;79.23;100918.07;2078471;83;20999;-71
2022/01/29 05:54:51;;;;;;;24.30;6.37;;;;;;;-0.28;79.22;100910.19;2088924;83;21571;-71
2022/01/29 05:57:52;;;;;;;28.50;7.05;;;;;;;-0.24;79.22;100910.86;2058737;84;21524;-71
2022/01/29 06:00:54;;;;;;;28.00;6.60;;;;;;;-0.24;79.23;100900.43;2070733;83;21477;-72
2022/01/29 06:03:57;;;;;;;27.20;6.00;;;;;;;-0.21;79.25;100895.05;2083307;83;20981;-72
2022/01/29 06:06:58;;;;;;;25.88;7.50;;;;;;;-0.16;79.25;100896.13;2077087;82;21078;-73
2022/01/29 06:10:00;;;;;;;20.77;5.92;;;;;;;-0.19;79.19;100891.91;2081957;83;20939;-71
2022/01/29 06:13:05;;;;;;;20.50;6.05;;;;;;;-0.23;79.22;100891.67;2080470;83;20946;-70
2022/01/29 06:16:06;;;;;;;38.48;6.65;;;;;;;-0.27;79.28;100892.77;2083408;83;21040;-70
2022/01/29 06:19:08;;;;;;;28.10;6.08;;;;;;;-0.30;79.28;100891.62;2083350;83;21039;-70
2022/01/29 06:22:13;;;;;;;29.20;6.50;;;;;;;-0.32;79.38;100886.47;2085676;83;21572;-76
2022/01/29 06:25:12;;;;;;;25.48;5.97;;;;;;;-0.36;79.43;100874.98;2077147;83;21030;-72
2022/01/29 06:28:14;;;;;;;32.60;7.28;;;;;;;-0.40;79.57;100877.35;2073582;83;21034;-72
2022/01/29 06:31:15;;;;;;;36.77;7.25;;;;;;;-0.43;79.69;100875.73;2075739;83;20971;-74
2022/01/29 06:34:17;;;;;;;33.02;7.28;;;;;;;-0.47;79.71;100868.55;2099372;82;21025;-73
2022/01/29 06:37:18;;;;;;;21.70;6.35;;;;;;;-0.42;79.80;100875.27;2097805;83;21062;-71
2022/01/29 06:40:19;;;;;;;28.87;6.65;;;;;;;-0.39;79.81;100859.03;2097321;83;21053;-71
2022/01/29 06:43:21;;;;;;;32.45;7.40;;;;;;;-0.32;79.80;100847.81;2098341;83;21690;-75
2022/01/29 06:46:22;;;;;;;29.60;7.03;;;;;;;-0.28;79.84;100837.63;2095255;83;21521;-71
2022/01/29 06:49:23;;;;;;;34.38;7.87;;;;;;;-0.24;79.80;100837.36;2081289;82;21109;-73
2022/01/29 06:52:25;;;;;;;35.90;8.80;;;;;;;-0.20;79.78;100834.13;2078287;83;21030;-75
2022/01/29 06:55:27;;;;;;;25.82;7.17;;;;;;;-0.15;79.80;100824.77;2082622;83;20985;-70
2022/01/29 06:58:28;;;;;;;25.68;6.45;;;;;;;-0.13;79.77;100819.84;2085805;83;21077;-70
2022/01/29 07:01:29;;;;;;;22.98;5.97;;;;;;;-0.08;79.76;100823.53;2082157;83;21148;-70
2022/01/29 07:04:30;;;;;;;26.50;5.83;;;;;;;-0.06;79.74;100827.75;2079029;83;20975;-70
2022/01/29 07:07:32;;;;;;;23.67;6.35;;;;;;;-0.02;79.68;100817.98;2085107;83;21012;-70
2022/01/29 07:10:33;;;;;;;27.75;6.55;;;;;;;0.01;79.65;100813.91;2081753;83;21107;-72
2022/01/29 07:13:35;;;;;;;33.75;8.98;;;;;;;0.04;79.62;100807.21;2083978;83;21045;-70
2022/01/29 07:16:37;;;;;;;44.42;16.30;;;;;;;0.09;79.55;100796.53;2083623;82;21030;-70
2022/01/29 07:19:39;;;;;;;28.32;8.78;;;;;;;0.13;79.49;100794.13;2099898;83;21068;-71
2022/01/29 07:22:41;;;;;;;19.20;5.42;;;;;;;0.14;79.37;100794.49;2099922;83;21488;-75
2022/01/29 07:25:44;;;;;;;20.43;5.15;;;;;;;0.20;79.33;100800.70;2106237;83;21016;-72
2022/01/29 07:28:45;;;;;;;24.02;5.80;;;;;;;0.24;79.32;100812.66;2106050;82;21029;-72
2022/01/29 07:31:47;;;;;;;23.90;6.25;;;;;;;0.29;79.26;100797.59;2106253;83;21021;-74
2022/01/29 07:34:48;;;;;;;33.18;9.98;;;;;;;0.33;79.21;100803.47;2104065;83;21054;-73
2022/01/29 07:37:53;;;;;;;20.15;8.85;;;;;;;0.37;79.10;100799.31;2101904;83;21014;-73
2022/01/29 07:40:57;;;;;;;22.30;5.45;;;;;;;0.39;78.93;100790.91;2101813;82;21536;-72
2022/01/29 07:43:58;;;;;;;26.10;7.12;;;;;;;0.42;78.80;100789.47;2104266;83;21064;-74
2022/01/29 07:47:01;;;;;;;34.95;7.90;;;;;;;0.47;78.78;100780.52;2101079;83;21074;-72
2022/01/29 07:50:04;;;;;;;20.02;6.33;;;;;;;0.52;78.64;100775.89;2103732;83;20963;-73
2022/01/29 07:53:06;;;;;;;19.07;6.92;;;;;;;0.57;78.58;100783.84;2100087;83;21037;-74
2022/01/29 07:56:07;;;;;;;24.45;8.40;;;;;;;0.62;78.63;100772.67;2104373;82;21030;-73
2022/01/29 07:59:09;;;;;;;28.75;9.20;;;;;;;0.70;78.51;100759.16;2106547;83;21402;-72
2022/01/29 08:02:10;;;;;;;25.00;7.00;;;;;;;0.75;78.26;100767.57;2106462;83;21081;-73
2022/01/29 08:05:11;;;;;;;19.85;6.33;;;;;;;0.80;78.19;100756.40;2105989;83;21088;-72
2022/01/29 08:08:13;;;;;;;16.67;5.78;;;;;;;0.85;78.10;100759.59;2106390;83;22251;-73
2022/01/29 08:11:16;;;;;;;24.90;8.10;;;;;;;0.86;77.97;100762.57;2108255;83;21021;-75
2022/01/29 08:14:17;;;;;;;21.65;6.65;;;;;;;0.89;77.77;100753.25;2106165;82;21563;-73
2022/01/29 08:17:18;;;;;;;17.92;5.50;;;;;;;0.91;77.76;100748.41;2101807;83;20987;-74
2022/01/29 08:20:20;;;;;;;19.62;6.55;;;;;;;0.93;77.81;100742.61;2084718;83;21093;-73
2022/01/29 08:23:22;;;;;;;27.62;8.45;;;;;;;0.97;77.72;100742.83;2084114;83;21017;-72
2022/01/29 08:26:24;;;;;;;24.60;8.68;;;;;;;1.01;77.71;100733.86;2083795;83;21535;-71
2022/01/29 08:29:26;;;;;;;24.18;7.80;;;;;;;1.02;77.65;100731.64;2082773;83;21077;-71
2022/01/29 08:32:27;;;;;;;22.52;8.48;;;;;;;1.05;77.63;100734.91;2082813;83;21780;-70
2022/01/29 08:35:29;;;;;;;27.30;8.63;;;;;;;1.08;77.70;100731.27;2083025;83;21035;-73
2022/01/29 08:38:30;;;;;;;20.82;7.03;;;;;;;1.11;77.79;100723.25;2085846;83;20979;-70
2022/01/29 08:41:31;;;;;;;24.40;7.20;;;;;;;1.18;77.78;100712.78;2082406;83;21012;-70
2022/01/29 08:44:33;;;;;;;24.43;8.38;;;;;;;1.25;77.77;100703.65;2082953;83;21512;-73
2022/01/29 08:47:35;;;;;;;23.45;7.92;;;;;;;1.33;77.75;100698.80;2081593;83;21078;-71
2022/01/29 08:50:38;;;;;;;19.67;7.28;;;;;;;1.42;77.75;100697.87;2094205;83;21018;-71
2022/01/29 08:53:41;;;;;;;34.10;9.98;;;;;;;1.49;77.66;100690.00;2083643;83;21287;-71
2022/01/29 08:56:44;;;;;;;24.30;8.85;;;;;;;1.55;77.63;100674.79;2084745;83;21141;-70
2022/01/29 08:59:46;;;;;;;23.80;7.67;;;;;;;1.56;77.50;100674.31;2085690;83;21049;-70
2022/01/29 09:02:47;;;;;;;20.97;6.72;;;;;;;1.59;77.52;100677.21;2080101;83;21559;-70
2022/01/29 09:05:51;;;;;;;27.62;7.95;;;;;;;1.65;77.58;100668.50;2081350;83;21883;-70
2022/01/29 09:08:53;;;;;;;20.10;7.72;;;;;;;1.72;77.56;100661.96;2078416;82;21038;-70
2022/01/29 09:11:56;;;;;;;18.48;7.08;;;;;;;1.77;77.37;100665.58;2086625;83;21064;-71
2022/01/29 09:14:57;;;;;;;23.42;7.55;;;;;;;1.81;77.34;100667.55;2087156;83;20990;-71
2022/01/29 09:17:59;;;;;;;26.23;7.70;;;;;;;1.82;77.33;100665.30;2086091;83;21087;-71
2022/01/29 09:21:01;;;;;;;24.95;8.33;;;;;;;1.83;77.25;100659.12;2096772;83;21383;-71
2022/01/29 09:24:03;;;;;;;22.82;6.95;;;;;;;1.88;77.31;100653.96;2090264;83;21036;-71
2022/01/29 09:27:05;;;;;;;21.77;7.00;;;;;;;1.88;76.88;100647.89;2087019;83;21558;-70
2022/01/29 09:30:08;;;;;;;30.20;7.22;;;;;;;1.90;77.04;100647.33;2090076;83;20959;-70
2022/01/29 09:33:12;;;;;;;23.20;7.45;;;;;;;1.94;76.96;100633.09;2084649;83;21122;-71
2022/01/29 09:36:14;;;;;;;25.80;7.92;;;;;;;2.01;76.94;100618.69;2077158;83;21054;-70
2022/01/29 09:39:16;;;;;;;25.88;6.85;;;;;;;2.09;76.92;100615.11;2082556;83;21033;-70
2022/01/29 09:42:19;;;;;;;22.80;7.70;;;;;;;2.13;76.91;100617.05;2087423;83;21050;-71
2022/01/29 09:45:24;;;;;;;23.85;6.65;;;;;;;2.18;76.96;100611.88;2090512;83;21080;-70
2022/01/29 09:48:29;;;;;;;29.07;7.05;;;;;;;2.18;77.00;100606.64;2089150;83;21316;-71
2022/01/29 09:51:31;;;;;;;17.95;6.10;;;;;;;2.16;76.94;100595.90;2079736;83;21062;-74
2022/01/29 09:54:33;;;;;;;26.75;6.75;;;;;;;2.16;77.11;100599.34;2093653;83;21003;-70
2022/01/29 09:57:35;;;;;;;15.98;5.60;;;;;;;2.17;77.19;100581.41;2071320;83;21595;-72
2022/01/29 10:00:38;;;;;;;21.52;6.10;;;;;;;2.23;77.42;100577.07;2096052;83;21586;-71
2022/01/29 10:03:42;;;;;;;19.48;6.03;;;;;;;2.31;77.37;100579.63;2076192;83;21025;-82
2022/01/29 10:06:47;;;;;;;34.08;10.80;;;;;;;2.33;77.12;100573.83;2065260;83;21093;-72
2022/01/29 10:09:48;;;;;;;17.12;6.15;;;;;;;2.32;77.36;100566.45;2088090;83;21029;-72
2022/01/29 10:12:51;;;;;;;25.02;7.40;;;;;;;2.28;77.29;100558.89;2069954;83;21038;-72
2022/01/29 10:16:07;;;;;;;23.87;7.20;;;;;;;2.23;77.38;100545.65;2080648;83;21117;-73
2022/01/29 10:19:12;;;;;;;24.05;7.35;;;;;;;2.17;77.49;100546.54;2095393;83;21043;-72
2022/01/29 10:22:21;;;;;;;18.45;6.65;;;;;;;2.09;77.55;100536.57;2090240;83;21100;-72
2022/01/29 10:25:31;;;;;;;17.70;6.95;;;;;;;2.06;77.81;100533.33;2088877;83;22354;-71
2022/01/29 10:28:33;;;;;;;19.60;6.70;;;;;;;1.98;77.87;100536.45;2093626;83;21558;-72
2022/01/29 10:31:48;;;;;;;13.75;5.45;;;;;;;1.93;78.00;100529.36;2090486;83;21451;-72
2022/01/29 10:34:56;;;;;;;20.57;6.33;;;;;;;1.90;78.22;100525.16;2098404;83;21335;-72
2022/01/29 10:37:58;;;;;;;18.02;6.42;;;;;;;1.87;78.37;100514.07;2108287;83;21982;-72
2022/01/29 10:41:31;;;;;;;23.83;7.72;;;;;;;1.84;78.51;100510.34;2111014;83;21018;-71
2022/01/29 10:44:46;;;;;;;19.80;7.50;;;;;;;1.79;78.59;100510.16;2102088;82;22322;-74
2022/01/29 10:47:57;;;;;;;23.32;7.95;;;;;;;1.74;78.83;100508.31;2100206;83;21038;-73
2022/01/29 10:51:13;;;;;;;;;;;;;;;1.68;78.95;100498.26;2107740;83;21116;-72
2022/01/29 10:54:18;;;;;;;20.23;6.62;;;;;;;1.62;79.26;100490.81;2102079;83;20167;-72
2022/01/29 10:57:20;;;;;;;20.35;7.20;;;;;;;1.56;79.60;100493.84;2109581;83;21448;-80
2022/01/29 11:00:31;;;;;;;17.80;7.42;;;;;;;1.55;79.70;100481.70;2108198;83;21584;-70
2022/01/29 11:03:31;;;;;;;17.33;6.80;;;;;;;1.53;79.83;100476.56;2109096;83;21110;-72
2022/01/29 11:06:38;;;;;;;19.65;7.55;;;;;;;1.50;79.90;100471.53;2106523;83;20973;-72
2022/01/29 11:09:46;;;;;;;18.95;6.67;;;;;;;1.48;80.13;100459.50;2104775;83;20983;-71
2022/01/29 11:12:50;;;;;;;22.52;7.20;;;;;;;1.46;80.29;100454.83;2102395;83;21046;-71
2022/01/29 11:15:54;;;;;;;16.62;7.08;;;;;;;1.46;80.47;100447.81;2104942;83;21085;-70
2022/01/29 11:18:59;;;;;;;19.37;7.55;;;;;;;1.44;80.62;100442.34;2098228;83;21470;-71
2022/01/29 11:22:05;;;;;;;16.67;7.37;;;;;;;1.44;80.83;100435.80;2096438;83;20971;-71
2022/01/29 11:25:11;;;;;;;13.00;7.87;;;;;;;1.40;80.89;100426.47;2095214;83;21070;-73
2022/01/29 11:28:18;;;;;;;14.23;7.87;;;;;;;1.34;81.20;100418.08;2096601;82;21061;-70
2022/01/29 11:31:21;;;;;;;16.42;7.65;;;;;;;1.27;81.38;100399.00;2081347;82;21146;-70
2022/01/29 11:34:23;;;;;;;14.50;6.92;;;;;;;1.24;81.43;100396.55;2079752;83;21057;-71
2022/01/29 11:37:43;;;;;;;13.72;7.37;;;;;;;1.20;81.88;100386.77;2074989;83;21044;-71
2022/01/29 11:41:03;;;;;;;16.42;7.58;;;;;;;1.19;81.77;100377.27;2083443;83;21097;-72
2022/01/29 11:44:27;;;;;;;13.55;7.37;;;;;;;1.18;81.84;100369.04;2098442;83;21046;-74
2022/01/29 11:47:46;;;;;;;12.90;6.92;;;;;;;1.19;81.78;100356.36;2087850;83;21070;-73
2022/01/29 11:50:51;;;;;;;14.23;6.70;;;;;;;1.20;81.90;100341.50;2058255;84;21026;-72
2022/01/29 11:53:56;;;;;;;11.85;6.62;;;;;;;1.15;82.00;100331.81;2077053;83;21048;-73
2022/01/29 11:57:18;;;;;;;9.48;6.00;;;;;;;1.12;82.07;100331.55;2079741;83;21050;-72
2022/01/29 12:00:37;;;;;;;12.53;6.87;;;;;;;1.11;82.14;100324.66;2069308;83;21029;-74
2022/01/29 12:03:45;;;;;;;18.90;8.83;;;;;;;1.09;82.27;100318.69;2069285;83;21105;-72
2022/01/29 12:07:26;;;;;;;11.12;5.65;;;;;;;1.03;82.41;100318.62;2063911;84;21429;-72
2022/01/29 12:10:25;;;;;;;11.90;6.47;;;;;;;0.99;82.66;100309.80;2076823;83;21083;-72
2022/01/29 12:13:27;;;;;;;12.18;6.53;;;;;;;0.96;82.62;100296.91;2072979;83;20999;-72
2022/01/29 12:16:57;;;;;;;13.48;6.30;;;;;;;0.94;82.56;100292.27;2086526;83;21073;-75
2022/01/29 12:20:01;;;;;;;11.90;6.05;;;;;;;0.94;82.63;100294.41;2079779;83;21102;-74
2022/01/29 12:23:05;;;;;;;12.55;6.58;;;;;;;0.91;82.65;100291.16;2076965;83;21017;-73
2022/01/29 12:26:08;;;;;;;10.15;6.53;;;;;;;0.84;82.71;100279.78;2078893;83;21054;-74
2022/01/29 12:29:11;;;;;;;9.58;6.05;;;;;;;0.74;82.71;100281.34;2084318;84;21057;-74
2022/01/29 12:32:13;;;;;;;14.25;6.50;;;;;;;0.65;83.01;100260.58;2078518;84;20983;-74
2022/01/29 12:35:15;;;;;;;14.30;5.97;;;;;;;0.62;83.10;100254.70;2076239;84;20979;-75
2022/01/29 12:38:27;;;;;;;8.50;5.58;;;;;;;0.57;83.12;100244.58;2076997;84;21114;-76
2022/01/29 12:41:37;;;;;;;9.88;5.42;;;;;;;0.53;83.26;100234.41;2074592;83;21938;-75
2022/01/29 12:44:32;;;;;;;8.78;5.62;;;;;;;0.51;83.37;100227.14;2075848;84;20983;-75
2022/01/29 12:47:36;;;;;;;9.88;6.40;;;;;;;0.49;83.42;100212.90;2083474;83;21089;-75
2022/01/29 12:50:40;;;;;;;8.33;5.58;;;;;;;0.48;83.45;100206.45;2077914;84;21062;-74
2022/01/29 12:53:42;;;;;;;7.78;5.33;;;;;;;0.48;83.45;100195.57;2076369;83;21042;-74
2022/01/29 12:56:44;;;;;;;9.00;6.20;;;;;;;0.51;83.51;100195.81;2074824;84;21066;-74
2022/01/29 12:59:45;;;;;;;9.43;5.67;;;;;;;0.52;83.56;100189.67;2080771;84;21042;-74
2022/01/29 13:02:48;;;;;;;9.83;6.53;;;;;;;0.54;83.58;100179.97;2078913;84;21053;-74
2022/01/29 13:05:50;;;;;;;9.28;6.08;;;;;;;0.55;83.61;100177.24;2077744;84;21046;-73
2022/01/29 13:08:51;;;;;;;12.75;7.58;;;;;;;0.56;83.80;100166.32;2082728;84;20983;-73
2022/01/29 13:12:03;;;;;;;12.43;7.20;;;;;;;0.60;83.72;100170.42;2081414;83;20994;-73
2022/01/29 13:15:09;;;;;;;8.73;6.28;;;;;;;0.63;83.79;100158.47;2052023;84;21082;-73
2022/01/29 13:18:12;;;;;;;11.65;6.55;;;;;;;0.62;83.89;100151.10;2074165;84;21620;-73
2022/01/29 13:21:13;;;;;;;9.30;6.60;;;;;;;0.61;83.95;100148.58;2069115;84;22253;-71
2022/01/29 13:24:35;;;;;;;11.43;7.15;;;;;;;0.62;84.04;100133.27;2054728;84;21068;-72
2022/01/29 13:27:40;;;;;;;8.60;6.08;;;;;;;0.65;84.10;100121.34;2067115;84;21127;-70
2022/01/29 13:30:42;;;;;;;13.20;8.88;;;;;;;0.68;84.40;100105.46;2070763;83;21477;-70
2022/01/29 13:33:44;;;;;;;11.63;7.97;;;;;;;0.70;84.26;100099.64;2089431;83;21058;-70
2022/01/29 13:36:47;;;;;;;8.15;5.45;;;;;;;0.75;84.34;100093.64;2081582;83;21049;-71
2022/01/29 13:39:49;;;;;;;10.13;4.75;;;;;;;0.79;84.51;100078.14;2071885;83;22285;-69
2022/01/29 13:42:57;;;;;;;6.75;4.85;;;;;;;0.86;84.61;100074.63;2075741;83;21101;-70
2022/01/29 13:46:10;;;;;;;11.43;5.05;;;;;;;0.95;84.63;100070.53;2075576;83;20991;-72
2022/01/29 13:49:17;;;;;;;9.70;6.22;;;;;;;1.03;84.77;100063.00;2091612;83;21136;-73
2022/01/29 13:52:22;;;;;;;9.95;5.67;;;;;;;1.10;84.74;100051.19;2063584;83;21003;-71
2022/01/29 13:55:23;;;;;;;5.95;3.92;;;;;;;1.18;84.78;100043.62;2083757;83;21024;-70
2022/01/29 13:58:26;;;;;;;7.40;4.58;;;;;;;1.23;84.84;100039.38;2073176;83;21076;-73
2022/01/29 14:01:58;;;;;;;5.65;4.12;;;;;;;1.28;84.86;100019.81;2068152;83;21071;-78
2022/01/29 14:05:05;;;;;;;9.55;4.62;;;;;;;1.32;84.93;100023.03;2072501;83;21962;-68
2022/01/29 14:08:22;;;;;;;7.42;4.10;;;;;;;1.34;84.95;100000.23;2082217;82;21635;-71
2022/01/29 14:11:25;;;;;;;7.28;4.10;;;;;;;1.37;84.98;100004.41;2084706;83;20971;-70
2022/01/29 14:14:34;;;;;;;5.67;3.70;;;;;;;1.39;85.07;100006.45;2081725;83;21132;-73
2022/01/29 14:17:37;;;;;;;6.55;4.58;;;;;;;1.41;85.06;99994.08;2081723;83;21555;-71
2022/01/29 14:20:39;;;;;;;8.33;4.70;;;;;;;1.45;85.07;99982.47;2079459;83;21159;-69